Time,TemperatureF,DewpointF,PressureIn,WindDirection,WindDirectionDegrees,WindSpeedMPH,WindSpeedGustMPH,Humidity,HourlyPrecipIn,Conditions,Clouds,dailyrainin,SoftwareType,DateUTC
2013-07-31 00:00:00,64.9,54.9,30.03,NW,316,0.0,0.0,70,0.00,,,-99.99,Weather View 32 v70,2013-07-31 05:00:00,
2013-07-31 00:10:00,64.8,55.1,30.03,NW,316,0.0,0.0,71,0.00,,,-99.99,Weather View 32 v70,2013-07-31 05:10:00,
2013-07-31 00:15:00,64.6,54.9,30.03,NW,316,0.0,0.0,71,0.00,,,-99.99,Weather View 32 v70,2013-07-31 05:15:00,
2013-07-31 00:20:00,64.4,55.2,30.03,NW,316,0.0,0.0,72,0.00,,,-99.99,Weather View 32 v70,2013-07-31 05:20:00,
2013-07-31 00:30:00,64.4,55.2,30.03,NW,316,0.0,0.0,72,0.00,,,-99.99,Weather View 32 v70,2013-07-31 05:30:00,
2013-07-31 00:40:00,64.2,55.4,30.03,NW,316,0.0,0.0,73,0.00,,,-99.99,Weather View 32 v70,2013-07-31 05:40:00,
2013-07-31 00:50:00,64.2,55.7,30.03,NW,316,0.0,0.0,74,0.00,,,-99.99,Weather View 32 v70,2013-07-31 05:50:00,
2013-07-31 00:55:00,64.0,55.9,30.03,NW,316,0.0,0.0,75,0.00,,,-99.99,Weather View 32 v70,2013-07-31 05:55:00,
2013-07-31 01:05:00,63.7,55.6,30.03,NW,316,0.0,0.0,75,0.00,,,-99.99,Weather View 32 v70,2013-07-31 06:05:00,
2013-07-31 01:10:00,63.7,56.0,30.03,NW,316,0.0,0.0,76,0.00,,,-99.99,Weather View 32 v70,2013-07-31 06:10:00,
2013-07-31 01:20:00,63.3,55.6,30.03,NW,316,0.0,0.0,76,0.00,,,-99.99,Weather View 32 v70,2013-07-31 06:20:00,
2013-07-31 01:25:00,63.1,55.8,30.03,NW,316,0.0,0.0,77,0.00,,,-99.99,Weather View 32 v70,2013-07-31 06:25:00,
2013-07-31 01:35:00,63.1,55.8,30.03,NW,316,0.0,0.0,77,0.00,,,-99.99,Weather View 32 v70,2013-07-31 06:35:00,
2013-07-31 01:40:00,63.0,56.0,30.03,NW,316,0.0,0.0,78,0.00,,,-99.99,Weather View 32 v70,2013-07-31 06:40:00,
2013-07-31 01:50:00,63.0,56.0,30.03,NW,316,0.0,0.0,78,0.00,,,-99.99,Weather View 32 v70,2013-07-31 06:50:00,
2013-07-31 01:55:00,63.0,56.0,30.03,NW,316,0.0,0.0,78,0.00,,,-99.99,Weather View 32 v70,2013-07-31 06:55:00,
2013-07-31 02:00:00,63.0,56.3,30.03,NW,316,0.0,0.0,79,0.00,,,-99.99,Weather View 32 v70,2013-07-31 07:00:00,
2013-07-31 02:14:00,63.0,56.7,30.03,NW,316,0.0,0.0,80,0.00,,,-99.99,Weather View 32 v70,2013-07-31 07:14:00,
2013-07-31 02:20:00,63.1,56.9,30.03,NW,316,0.0,0.0,80,0.00,,,-99.99,Weather View 32 v70,2013-07-31 07:20:00,
2013-07-31 02:25:00,63.1,57.2,30.03,NW,316,0.0,0.0,81,0.00,,,-99.99,Weather View 32 v70,2013-07-31 07:25:00,
2013-07-31 02:35:00,63.0,57.0,30.03,NW,316,0.0,0.0,81,0.00,,,-99.99,Weather View 32 v70,2013-07-31 07:35:00,
2013-07-31 02:40:00,62.8,56.8,30.03,NW,316,0.0,0.0,81,0.00,,,-99.99,Weather View 32 v70,2013-07-31 07:40:00,
2013-07-31 02:45:00,62.6,56.7,30.03,NW,316,0.0,0.0,81,0.00,,,-99.99,Weather View 32 v70,2013-07-31 07:45:00,
2013-07-31 02:55:00,62.6,56.7,30.03,NW,316,0.0,0.0,81,0.00,,,-99.99,Weather View 32 v70,2013-07-31 07:55:00,
2013-07-31 03:05:00,63.1,57.5,30.03,NW,316,0.0,3.0,82,0.00,,,-99.99,Weather View 32 v70,2013-07-31 08:05:00,
2013-07-31 03:15:00,63.7,58.4,30.03,NW,316,0.0,4.0,83,0.00,,,-99.99,Weather View 32 v70,2013-07-31 08:15:00,
2013-07-31 03:20:00,63.9,58.6,30.03,NW,313,3.0,5.0,83,0.00,,,-99.99,Weather View 32 v70,2013-07-31 08:20:00,
2013-07-31 03:25:00,64.0,58.8,30.03,NW,304,2.0,5.0,83,0.00,,,-99.99,Weather View 32 v70,2013-07-31 08:25:00,
2013-07-31 03:35:00,63.9,58.6,30.03,WNW,302,3.0,5.0,83,0.00,,,-99.99,Weather View 32 v70,2013-07-31 08:35:00,
2013-07-31 03:40:00,63.7,58.4,30.03,NW,307,4.0,5.0,83,0.00,,,-99.99,Weather View 32 v70,2013-07-31 08:40:00,
2013-07-31 03:45:00,63.5,58.2,30.03,NW,314,0.0,5.0,83,0.00,,,-99.99,Weather View 32 v70,2013-07-31 08:45:00,
2013-07-31 03:55:00,63.7,58.4,30.03,NW,311,0.0,5.0,83,0.00,,,-99.99,Weather View 32 v70,2013-07-31 08:55:00,
2013-07-31 04:00:00,63.9,58.6,30.03,NW,326,5.0,5.0,83,0.00,,,-99.99,Weather View 32 v70,2013-07-31 09:00:00,
2013-07-31 04:10:00,63.7,58.4,30.03,NW,322,0.0,5.0,83,0.00,,,-99.99,Weather View 32 v70,2013-07-31 09:10:00,
2013-07-31 04:20:00,63.1,57.9,30.03,NW,307,0.0,5.0,83,0.00,,,-99.99,Weather View 32 v70,2013-07-31 09:20:00,
2013-07-31 04:25:00,62.8,57.2,30.03,NW,307,0.0,5.0,82,0.00,,,-99.99,Weather View 32 v70,2013-07-31 09:25:00,
2013-07-31 04:35:00,62.2,57.0,30.03,NW,307,0.0,5.0,83,0.00,,,-99.99,Weather View 32 v70,2013-07-31 09:35:00,
2013-07-31 04:40:00,62.1,56.8,30.03,NW,307,0.0,5.0,83,0.00,,,-99.99,Weather View 32 v70,2013-07-31 09:40:00,
2013-07-31 04:45:00,61.9,56.6,30.03,NW,307,0.0,5.0,83,0.00,,,-99.99,Weather View 32 v70,2013-07-31 09:45:00,
2013-07-31 04:55:00,61.5,56.3,30.03,NW,307,0.0,5.0,83,0.00,,,-99.99,Weather View 32 v70,2013-07-31 09:55:00,
2013-07-31 05:00:00,61.5,56.3,30.03,NW,307,0.0,5.0,83,0.00,,,-99.99,Weather View 32 v70,2013-07-31 10:00:00,
2013-07-31 05:10:00,61.3,56.1,30.03,NW,307,0.0,4.0,83,0.00,,,-99.99,Weather View 32 v70,2013-07-31 10:10:00,
2013-07-31 05:15:00,61.3,56.1,30.03,NW,307,0.0,3.0,83,0.00,,,-99.99,Weather View 32 v70,2013-07-31 10:15:00,
2013-07-31 05:23:00,61.3,56.1,30.03,NW,307,0.0,3.0,83,0.00,,,-99.99,Weather View 32 v70,2013-07-31 10:23:00,
2013-07-31 05:30:00,61.2,55.9,30.03,NW,307,0.0,3.0,83,0.00,,,-99.99,Weather View 32 v70,2013-07-31 10:30:00,
2013-07-31 05:35:00,61.2,55.9,30.03,NW,307,0.0,3.0,83,0.00,,,-99.99,Weather View 32 v70,2013-07-31 10:35:00,
2013-07-31 05:45:00,60.8,55.6,30.03,NW,308,0.0,3.0,83,0.00,,,-99.99,Weather View 32 v70,2013-07-31 10:45:00,
2013-07-31 05:50:00,60.6,55.7,30.03,NW,307,0.0,3.0,84,0.00,,,-99.99,Weather View 32 v70,2013-07-31 10:50:00,
2013-07-31 06:00:00,60.6,55.7,30.06,NW,307,0.0,3.0,84,0.00,,,-99.99,Weather View 32 v70,2013-07-31 11:00:00,
2013-07-31 06:10:00,60.6,55.7,30.06,NW,307,0.0,3.0,84,0.00,,,-99.99,Weather View 32 v70,2013-07-31 11:10:00,
2013-07-31 06:20:00,60.6,55.7,30.06,NW,308,0.0,0.0,84,0.00,,,-99.99,Weather View 32 v70,2013-07-31 11:20:00,
2013-07-31 06:30:00,60.8,55.9,30.06,NW,308,0.0,0.0,84,0.00,,,-99.99,Weather View 32 v70,2013-07-31 11:30:00,
2013-07-31 06:35:00,60.8,55.9,30.06,NW,307,0.0,0.0,84,0.00,,,-99.99,Weather View 32 v70,2013-07-31 11:35:00,
2013-07-31 06:45:00,60.8,55.9,30.06,NW,308,0.0,0.0,84,0.00,,,-99.99,Weather View 32 v70,2013-07-31 11:45:00,
2013-07-31 06:50:00,60.8,56.2,30.06,NW,307,0.0,0.0,85,0.00,,,-99.99,Weather View 32 v70,2013-07-31 11:50:00,
2013-07-31 07:00:00,61.0,56.4,30.06,NW,308,3.0,3.0,85,0.00,,,-99.99,Weather View 32 v70,2013-07-31 12:00:00,
2013-07-31 07:10:00,60.8,56.2,30.06,NW,307,0.0,4.0,85,0.00,,,-99.99,Weather View 32 v70,2013-07-31 12:10:00,
2013-07-31 07:20:00,61.2,56.9,30.06,NW,307,0.0,4.0,86,0.00,,,-99.99,Weather View 32 v70,2013-07-31 12:20:00,
2013-07-31 07:30:00,61.9,58.0,30.06,NW,306,3.0,4.0,87,0.00,,,-99.99,Weather View 32 v70,2013-07-31 12:30:00,
2013-07-31 07:35:00,62.2,58.3,30.06,NW,305,4.0,4.0,87,0.00,,,-99.99,Weather View 32 v70,2013-07-31 12:35:00,
2013-07-31 07:45:00,63.0,59.0,30.06,WNW,302,0.0,4.0,87,0.00,,,-99.99,Weather View 32 v70,2013-07-31 12:45:00,
2013-07-31 07:55:00,63.5,59.5,30.06,WNW,290,2.0,5.0,87,0.00,,,-99.99,Weather View 32 v70,2013-07-31 12:55:00,
2013-07-31 08:00:00,63.9,59.9,30.06,WNW,288,0.0,5.0,87,0.00,,,-99.99,Weather View 32 v70,2013-07-31 13:00:00,
2013-07-31 08:05:00,64.2,60.3,30.06,WNW,290,3.0,5.0,87,0.00,,,-99.99,Weather View 32 v70,2013-07-31 13:05:00,
2013-07-31 08:15:00,64.8,60.8,30.06,WNW,290,4.0,5.0,87,0.00,,,-99.99,Weather View 32 v70,2013-07-31 13:15:00,
2013-07-31 08:25:00,65.1,60.8,30.06,WNW,287,4.0,5.0,86,0.00,,,-99.99,Weather View 32 v70,2013-07-31 13:25:00,
2013-07-31 08:35:00,65.3,60.7,30.06,NW,306,6.0,6.0,85,0.00,,,-99.99,Weather View 32 v70,2013-07-31 13:35:00,
2013-07-31 08:40:00,65.5,60.2,30.06,WNW,289,3.0,6.0,83,0.00,,,-99.99,Weather View 32 v70,2013-07-31 13:40:00,
2013-07-31 08:50:00,65.7,60.0,30.06,WNW,295,3.0,6.0,82,0.00,,,-99.99,Weather View 32 v70,2013-07-31 13:50:00,
2013-07-31 08:55:00,65.8,60.2,30.06,NW,307,5.0,6.0,82,0.00,,,-99.99,Weather View 32 v70,2013-07-31 13:55:00,
2013-07-31 09:05:00,66.4,60.0,30.06,NW,304,4.0,6.0,80,0.00,,,-99.99,Weather View 32 v70,2013-07-31 14:05:00,
2013-07-31 09:15:00,67.1,59.3,30.06,WNW,291,2.0,6.0,76,0.00,,,-99.99,Weather View 32 v70,2013-07-31 14:15:00,
2013-07-31 09:25:00,67.6,57.1,30.06,NW,308,6.0,9.0,69,0.00,,,-99.99,Weather View 32 v70,2013-07-31 14:25:00,
2013-07-31 09:35:00,68.2,54.2,30.06,North,0,4.0,9.0,61,0.00,,,-99.99,Weather View 32 v70,2013-07-31 14:35:00,
2013-07-31 09:45:00,68.5,52.7,30.06,West,262,3.0,9.0,57,0.00,,,-99.99,Weather View 32 v70,2013-07-31 14:45:00,
2013-07-31 09:50:00,68.9,52.0,30.06,North,9,3.0,9.0,55,0.00,,,-99.99,Weather View 32 v70,2013-07-31 14:50:00,
2013-07-31 10:00:00,69.4,48.3,30.06,NNW,340,4.0,9.0,47,0.00,,,-99.99,Weather View 32 v70,2013-07-31 15:00:00,
2013-07-31 10:05:00,69.6,47.9,30.06,North,0,3.0,9.0,46,0.00,,,-99.99,Weather View 32 v70,2013-07-31 15:05:00,
2013-07-31 10:15:00,70.0,47.6,30.06,NNW,346,3.0,9.0,45,0.00,,,-99.99,Weather View 32 v70,2013-07-31 15:15:00,
2013-07-31 10:25:00,70.3,47.9,30.06,North,10,3.0,8.0,45,0.00,,,-99.99,Weather View 32 v70,2013-07-31 15:25:00,
2013-07-31 10:35:00,70.9,46.6,30.03,WNW,297,4.0,8.0,42,0.00,,,-99.99,Weather View 32 v70,2013-07-31 15:35:00,
2013-07-31 10:40:00,71.2,46.9,30.03,North,7,4.0,8.0,42,0.00,,,-99.99,Weather View 32 v70,2013-07-31 15:40:00,
2013-07-31 10:50:00,71.8,46.1,30.06,NNW,330,8.0,8.0,40,0.00,,,-99.99,Weather View 32 v70,2013-07-31 15:50:00,
2013-07-31 10:55:00,72.1,45.1,30.06,NNW,337,5.0,8.0,38,0.00,,,-99.99,Weather View 32 v70,2013-07-31 15:55:00,
2013-07-31 11:05:00,71.8,45.4,30.06,NW,321,5.0,8.0,39,0.00,,,-99.99,Weather View 32 v70,2013-07-31 16:05:00,
2013-07-31 11:10:00,71.8,45.4,30.06,WNW,290,4.0,8.0,39,0.00,,,-99.99,Weather View 32 v70,2013-07-31 16:10:00,
2013-07-31 11:20:00,72.1,45.7,30.06,NNW,339,7.0,8.0,39,0.00,,,-99.99,Weather View 32 v70,2013-07-31 16:20:00,
2013-07-31 11:27:00,72.7,46.2,30.06,NW,312,6.0,8.0,39,0.00,,,-99.99,Weather View 32 v70,2013-07-31 16:27:00,
2013-07-31 11:35:00,73.2,45.3,30.06,North,350,9.0,11.0,37,0.00,,,-99.99,Weather View 32 v70,2013-07-31 16:35:00,
2013-07-31 11:45:00,73.4,45.5,30.06,NNW,332,8.0,11.0,37,0.00,,,-99.99,Weather View 32 v70,2013-07-31 16:45:00,
2013-07-31 11:50:00,73.2,44.6,30.06,NNW,341,5.0,11.0,36,0.00,,,-99.99,Weather View 32 v70,2013-07-31 16:50:00,
2013-07-31 11:55:00,73.4,44.7,30.06,NW,323,5.0,11.0,36,0.00,,,-99.99,Weather View 32 v70,2013-07-31 16:55:00,
2013-07-31 12:00:00,73.6,44.2,30.06,WNW,292,8.0,11.0,35,0.00,,,-99.99,Weather View 32 v70,2013-07-31 17:00:00,
2013-07-31 12:10:00,73.9,43.7,30.06,NNW,337,6.0,11.0,34,0.00,,,-99.99,Weather View 32 v70,2013-07-31 17:10:00,
2013-07-31 12:20:00,74.3,43.3,30.06,WNW,288,6.0,11.0,33,0.00,,,-99.99,Weather View 32 v70,2013-07-31 17:20:00,
2013-07-31 12:25:00,74.3,43.3,30.06,WNW,291,6.0,11.0,33,0.00,,,-99.99,Weather View 32 v70,2013-07-31 17:25:00,
2013-07-31 12:30:00,74.3,43.3,30.06,NW,316,8.0,11.0,33,0.00,,,-99.99,Weather View 32 v70,2013-07-31 17:30:00,
2013-07-31 12:35:00,74.3,43.3,30.06,NW,324,5.0,11.0,33,0.00,,,-99.99,Weather View 32 v70,2013-07-31 17:35:00,
2013-07-31 12:45:00,74.1,42.3,30.06,NNW,334,8.0,11.0,32,0.00,,,-99.99,Weather View 32 v70,2013-07-31 17:45:00,
2013-07-31 12:50:00,74.3,42.5,30.06,NW,308,8.0,11.0,32,0.00,,,-99.99,Weather View 32 v70,2013-07-31 17:50:00,
2013-07-31 13:00:00,74.7,42.8,30.06,NNW,329,9.0,11.0,32,0.00,,,-99.99,Weather View 32 v70,2013-07-31 18:00:00,
2013-07-31 13:05:00,74.7,42.8,30.06,WNW,286,6.0,11.0,32,0.00,,,-99.99,Weather View 32 v70,2013-07-31 18:05:00,
2013-07-31 13:10:00,74.5,42.6,30.06,West,280,8.0,11.0,32,0.00,,,-99.99,Weather View 32 v70,2013-07-31 18:10:00,
2013-07-31 13:15:00,74.7,42.8,30.03,WNW,298,10.0,11.0,32,0.00,,,-99.99,Weather View 32 v70,2013-07-31 18:15:00,
2013-07-31 13:25:00,75.2,43.2,30.03,NNW,344,6.0,11.0,32,0.00,,,-99.99,Weather View 32 v70,2013-07-31 18:25:00,
2013-07-31 13:30:00,75.2,43.2,30.03,NW,324,5.0,11.0,32,0.00,,,-99.99,Weather View 32 v70,2013-07-31 18:30:00,
2013-07-31 13:40:00,75.4,43.4,30.03,NW,305,7.0,11.0,32,0.00,,,-99.99,Weather View 32 v70,2013-07-31 18:40:00,
2013-07-31 13:50:00,75.4,43.4,30.03,WNW,288,6.0,11.0,32,0.00,,,-99.99,Weather View 32 v70,2013-07-31 18:50:00,
2013-07-31 14:00:00,75.2,43.2,30.03,NW,316,8.0,11.0,32,0.00,,,-99.99,Weather View 32 v70,2013-07-31 19:00:00,
2013-07-31 14:10:00,75.0,43.1,30.03,West,274,6.0,11.0,32,0.00,,,-99.99,Weather View 32 v70,2013-07-31 19:10:00,
2013-07-31 14:20:00,75.4,43.4,30.03,NW,322,8.0,11.0,32,0.00,,,-99.99,Weather View 32 v70,2013-07-31 19:20:00,
2013-07-31 14:29:00,75.6,43.5,30.03,West,270,12.0,12.0,32,0.00,,,-99.99,Weather View 32 v70,2013-07-31 19:29:00,
2013-07-31 14:35:00,75.2,43.2,30.03,NW,311,6.0,12.0,32,0.00,,,-99.99,Weather View 32 v70,2013-07-31 19:35:00,
2013-07-31 14:45:00,75.6,43.5,30.03,WNW,285,8.0,12.0,32,0.00,,,-99.99,Weather View 32 v70,2013-07-31 19:45:00,
2013-07-31 14:50:00,75.6,42.7,30.03,NNW,337,6.0,12.0,31,0.00,,,-99.99,Weather View 32 v70,2013-07-31 19:50:00,
2013-07-31 15:00:00,75.0,43.1,30.03,NW,310,5.0,12.0,32,0.00,,,-99.99,Weather View 32 v70,2013-07-31 20:00:00,
2013-07-31 15:10:00,75.9,43.0,30.03,WNW,284,8.0,12.0,31,0.00,,,-99.99,Weather View 32 v70,2013-07-31 20:10:00,
2013-07-31 15:20:00,76.5,43.5,30.03,NNE,21,8.0,12.0,31,0.00,,,-99.99,Weather View 32 v70,2013-07-31 20:20:00,
2013-07-31 15:25:00,76.6,43.7,30.03,WNW,295,8.0,12.0,31,0.00,,,-99.99,Weather View 32 v70,2013-07-31 20:25:00,
2013-07-31 15:35:00,76.1,43.2,30.03,NW,307,4.0,12.0,31,0.00,,,-99.99,Weather View 32 v70,2013-07-31 20:35:00,
2013-07-31 15:45:00,75.2,42.4,30.03,WNW,293,6.0,12.0,31,0.00,,,-99.99,Weather View 32 v70,2013-07-31 20:45:00,
2013-07-31 15:55:00,74.5,41.8,30.03,NW,310,4.0,12.0,31,0.00,,,-99.99,Weather View 32 v70,2013-07-31 20:55:00,
2013-07-31 16:00:00,75.0,43.1,30.03,WNW,295,4.0,12.0,32,0.00,,,-99.99,Weather View 32 v70,2013-07-31 21:00:00,
2013-07-31 16:10:00,76.3,43.3,30.03,NNW,338,6.0,12.0,31,0.00,,,-99.99,Weather View 32 v70,2013-07-31 21:10:00,
2013-07-31 16:20:00,75.4,42.6,30.03,NNW,342,6.0,12.0,31,0.00,,,-99.99,Weather View 32 v70,2013-07-31 21:20:00,
2013-07-31 16:30:00,74.8,42.1,30.03,WNW,286,6.0,12.0,31,0.00,,,-99.99,Weather View 32 v70,2013-07-31 21:30:00,
2013-07-31 16:40:00,75.7,42.9,30.03,NW,307,8.0,12.0,31,0.00,,,-99.99,Weather View 32 v70,2013-07-31 21:40:00,
2013-07-31 16:45:00,75.6,42.7,30.03,NW,320,9.0,12.0,31,0.00,,,-99.99,Weather View 32 v70,2013-07-31 21:45:00,
2013-07-31 16:55:00,75.7,42.9,30.03,North,357,8.0,13.0,31,0.00,,,-99.99,Weather View 32 v70,2013-07-31 21:55:00,
2013-07-31 17:00:00,75.9,43.0,30.03,West,281,4.0,13.0,31,0.00,,,-99.99,Weather View 32 v70,2013-07-31 22:00:00,
2013-07-31 17:10:00,76.5,43.5,30.03,NW,313,9.0,13.0,31,0.00,,,-99.99,Weather View 32 v70,2013-07-31 22:10:00,
2013-07-31 17:20:00,76.6,43.7,30.03,WNW,291,4.0,13.0,31,0.00,,,-99.99,Weather View 32 v70,2013-07-31 22:20:00,
2013-07-31 17:30:00,76.1,43.2,30.03,NNW,328,4.0,13.0,31,0.00,,,-99.99,Weather View 32 v70,2013-07-31 22:30:00,
2013-07-31 17:40:00,75.6,42.7,30.03,NNW,345,4.0,13.0,31,0.00,,,-99.99,Weather View 32 v70,2013-07-31 22:40:00,
2013-07-31 17:50:00,75.7,42.9,30.03,NW,306,4.0,13.0,31,0.00,,,-99.99,Weather View 32 v70,2013-07-31 22:50:00,
2013-07-31 17:55:00,76.1,43.2,30.03,NW,322,6.0,13.0,31,0.00,,,-99.99,Weather View 32 v70,2013-07-31 22:55:00,
2013-07-31 18:05:00,76.1,43.2,30.03,WNW,294,4.0,11.0,31,0.00,,,-99.99,Weather View 32 v70,2013-07-31 23:05:00,
2013-07-31 18:10:00,76.1,43.2,30.03,NNW,330,7.0,11.0,31,0.00,,,-99.99,Weather View 32 v70,2013-07-31 23:10:00,
2013-07-31 18:20:00,75.9,43.0,30.03,NNW,330,4.0,11.0,31,0.00,,,-99.99,Weather View 32 v70,2013-07-31 23:20:00,
2013-07-31 18:25:00,75.9,43.0,30.03,West,265,3.0,11.0,31,0.00,,,-99.99,Weather View 32 v70,2013-07-31 23:25:00,
2013-07-31 18:31:00,76.1,43.2,30.03,North,353,5.0,11.0,31,0.00,,,-99.99,Weather View 32 v70,2013-07-31 23:31:00,
2013-07-31 18:40:00,75.7,42.9,30.03,WNW,296,4.0,11.0,31,0.00,,,-99.99,Weather View 32 v70,2013-07-31 23:40:00,
2013-07-31 18:45:00,75.9,43.0,30.00,NW,311,3.0,11.0,31,0.00,,,-99.99,Weather View 32 v70,2013-07-31 23:45:00,
2013-07-31 18:50:00,75.9,43.0,30.00,West,281,5.0,11.0,31,0.00,,,-99.99,Weather View 32 v70,2013-07-31 23:50:00,
2013-07-31 18:55:00,75.7,42.9,30.00,WNW,282,4.0,11.0,31,0.00,,,-99.99,Weather View 32 v70,2013-07-31 23:55:00,
2013-07-31 19:00:00,75.7,42.9,30.00,West,264,4.0,11.0,31,0.00,,,-99.99,Weather View 32 v70,2013-08-01 00:00:00,
2013-07-31 19:10:00,75.6,42.7,30.00,WNW,289,4.0,11.0,31,0.00,,,-99.99,Weather View 32 v70,2013-08-01 00:10:00,
2013-07-31 19:15:00,75.4,42.6,30.00,NW,320,4.0,10.0,31,0.00,,,-99.99,Weather View 32 v70,2013-08-01 00:15:00,
2013-07-31 19:25:00,74.8,42.9,30.00,North,353,4.0,10.0,32,0.00,,,-99.99,Weather View 32 v70,2013-08-01 00:25:00,
2013-07-31 19:30:00,74.8,42.9,30.00,NNW,331,4.0,10.0,32,0.00,,,-99.99,Weather View 32 v70,2013-08-01 00:30:00,
2013-07-31 19:40:00,74.7,42.8,30.00,NW,323,5.0,10.0,32,0.00,,,-99.99,Weather View 32 v70,2013-08-01 00:40:00,
2013-07-31 19:45:00,74.7,42.8,30.00,NW,313,7.0,10.0,32,0.00,,,-99.99,Weather View 32 v70,2013-08-01 00:45:00,
2013-07-31 19:50:00,74.5,42.6,30.00,WNW,284,4.0,10.0,32,0.00,,,-99.99,Weather View 32 v70,2013-08-01 00:50:00,
2013-07-31 19:55:00,74.3,42.5,30.00,North,0,4.0,10.0,32,0.00,,,-99.99,Weather View 32 v70,2013-08-01 00:55:00,
2013-07-31 20:00:00,73.9,42.1,30.00,NNW,337,5.0,10.0,32,0.00,,,-99.99,Weather View 32 v70,2013-08-01 01:00:00,
2013-07-31 20:10:00,73.0,41.4,30.00,NW,321,3.0,8.0,32,0.00,,,-99.99,Weather View 32 v70,2013-08-01 01:10:00,
2013-07-31 20:15:00,72.7,41.0,30.00,NW,314,3.0,8.0,32,0.00,,,-99.99,Weather View 32 v70,2013-08-01 01:15:00,
2013-07-31 20:20:00,72.3,41.5,30.00,NNW,339,3.0,8.0,33,0.00,,,-99.99,Weather View 32 v70,2013-08-01 01:20:00,
2013-07-31 20:30:00,72.0,41.2,29.97,NW,325,3.0,8.0,33,0.00,,,-99.99,Weather View 32 v70,2013-08-01 01:30:00,
2013-07-31 20:35:00,71.6,40.9,29.97,NW,326,0.0,8.0,33,0.00,,,-99.99,Weather View 32 v70,2013-08-01 01:35:00,
2013-07-31 20:40:00,71.2,41.4,29.97,NW,313,3.0,8.0,34,0.00,,,-99.99,Weather View 32 v70,2013-08-01 01:40:00,
2013-07-31 20:45:00,71.1,41.2,30.00,NW,314,0.0,8.0,34,0.00,,,-99.99,Weather View 32 v70,2013-08-01 01:45:00,
2013-07-31 20:50:00,70.7,40.9,30.00,NW,314,0.0,8.0,34,0.00,,,-99.99,Weather View 32 v70,2013-08-01 01:50:00,
2013-07-31 21:00:00,70.2,41.2,30.00,NW,314,0.0,8.0,35,0.00,,,-99.99,Weather View 32 v70,2013-08-01 02:00:00,
2013-07-31 21:05:00,69.8,40.8,30.00,NW,314,0.0,6.0,35,0.00,,,-99.99,Weather View 32 v70,2013-08-01 02:05:00,
2013-07-31 21:10:00,69.6,41.4,30.00,NW,314,0.0,6.0,36,0.00,,,-99.99,Weather View 32 v70,2013-08-01 02:10:00,
2013-07-31 21:20:00,68.9,41.5,30.00,NW,314,0.0,6.0,37,0.00,,,-99.99,Weather View 32 v70,2013-08-01 02:20:00,
2013-07-31 21:25:00,68.4,41.7,30.00,NW,314,0.0,5.0,38,0.00,,,-99.99,Weather View 32 v70,2013-08-01 02:25:00,
2013-07-31 21:30:00,68.2,42.2,30.00,NW,314,0.0,4.0,39,0.00,,,-99.99,Weather View 32 v70,2013-08-01 02:30:00,
2013-07-31 21:40:00,67.6,42.4,30.00,NW,314,0.0,4.0,40,0.00,,,-99.99,Weather View 32 v70,2013-08-01 02:40:00,
2013-07-31 21:45:00,67.3,42.7,30.00,NW,314,0.0,0.0,41,0.00,,,-99.99,Weather View 32 v70,2013-08-01 02:45:00,
2013-07-31 21:50:00,66.9,43.0,30.00,NW,314,0.0,0.0,42,0.00,,,-99.99,Weather View 32 v70,2013-08-01 02:50:00,
2013-07-31 22:00:00,66.2,43.0,30.00,NW,314,0.0,0.0,43,0.00,,,-99.99,Weather View 32 v70,2013-08-01 03:00:00,
2013-07-31 22:05:00,66.0,43.4,30.00,NW,314,0.0,0.0,44,0.00,,,-99.99,Weather View 32 v70,2013-08-01 03:05:00,
2013-07-31 22:10:00,65.7,43.1,30.00,NW,314,0.0,0.0,44,0.00,,,-99.99,Weather View 32 v70,2013-08-01 03:10:00,
2013-07-31 22:20:00,65.1,43.8,30.00,NW,314,0.0,0.0,46,0.00,,,-99.99,Weather View 32 v70,2013-08-01 03:20:00,
2013-07-31 22:25:00,64.9,43.6,30.00,NW,314,0.0,0.0,46,0.00,,,-99.99,Weather View 32 v70,2013-08-01 03:25:00,
2013-07-31 22:30:00,64.6,43.8,30.00,NW,314,0.0,0.0,47,0.00,,,-99.99,Weather View 32 v70,2013-08-01 03:30:00,
2013-07-31 22:40:00,63.9,43.7,30.00,NW,314,0.0,0.0,48,0.00,,,-99.99,Weather View 32 v70,2013-08-01 03:40:00,
2013-07-31 22:45:00,63.7,44.1,30.00,NW,314,0.0,0.0,49,0.00,,,-99.99,Weather View 32 v70,2013-08-01 03:45:00,
2013-07-31 22:50:00,63.5,44.5,30.00,NW,314,0.0,0.0,50,0.00,,,-99.99,Weather View 32 v70,2013-08-01 03:50:00,
2013-07-31 22:55:00,63.3,44.3,30.00,NW,314,0.0,0.0,50,0.00,,,-99.99,Weather View 32 v70,2013-08-01 03:55:00,
2013-07-31 23:05:00,62.4,44.0,30.00,NW,314,0.0,0.0,51,0.00,,,-99.99,Weather View 32 v70,2013-08-01 04:05:00,
2013-07-31 23:10:00,62.1,44.2,30.00,NW,314,0.0,0.0,52,0.00,,,-99.99,Weather View 32 v70,2013-08-01 04:10:00,
2013-07-31 23:15:00,61.7,43.9,30.00,NW,314,0.0,0.0,52,0.00,,,-99.99,Weather View 32 v70,2013-08-01 04:15:00,
2013-07-31 23:20:00,61.5,44.2,30.00,NW,314,0.0,0.0,53,0.00,,,-99.99,Weather View 32 v70,2013-08-01 04:20:00,
2013-07-31 23:30:00,61.3,44.5,30.00,NW,314,0.0,0.0,54,0.00,,,-99.99,Weather View 32 v70,2013-08-01 04:30:00,
2013-07-31 23:35:00,61.2,44.8,30.00,NW,314,0.0,0.0,55,0.00,,,-99.99,Weather View 32 v70,2013-08-01 04:35:00,
2013-07-31 23:45:00,61.0,44.7,30.00,NW,314,0.0,0.0,55,0.00,,,-99.99,Weather View 32 v70,2013-08-01 04:45:00,
2013-07-31 23:50:00,61.0,45.1,30.00,NW,314,0.0,0.0,56,0.00,,,-99.99,Weather View 32 v70,2013-08-01 04:50:00,
2013-07-31 23:55:00,61.0,45.1,30.00,NW,314,0.0,0.0,56,0.00,,,-99.99,Weather View 32 v70,2013-08-01 04:55:00,